Airfield :
LOGIN :

Register | Disclaimer

   EN    FR    IT 

 










Legend :    VFR   Marginal VFR   IFR   Intensive IFR   Very Intensive IFR
Visi :
Ceiling :
>= 8 km
>= 3000ft
5 to 8 km
1000 to 3000 ft
1500m to 5 km
500 to 1000 ft
800 to 1500m
200 to 500 ft
< 800m
< 200 ft
Symbols :   Thunderstorms  Fog  Heavy snow  Heavy precipitations  Wind > 20 kt
SIGMETs :     Misc.  Thunderstorms  Icing  Turbulence  Mountain Waves  Volcanic Ashes






- Airport Elevation : 433 ft
- IATA code : CCF


LFMK - Carcassonne

CURRENT METAR :
  • 280100Z AUTO 28013KT 9999 BKN011 OVC016 13/12 Q1021

EXPIRED METARs :
  • 280030Z AUTO 27011KT 9999 BKN014 BKN019 OVC025 14/12 Q1021
  • 280000Z AUTO 27014KT 240V300 9999 OVC013 14/12 Q1021
  • 272330Z AUTO 28015KT 9999 -DZ OVC012 14/13 Q1021
  • 272300Z AUTO 28017KT 9999 BKN014 OVC031 14/13 Q1021
  • 272230Z AUTO 28017KT 240V300 9999 -DZ BKN009 OVC021 14/13 Q1021

TAF TAF LFMK
Valid from the 27 at 15:00 until the 28 at 15:00 UTC


271400Z 2715/2815 28015KT 9999 OVC014
TEMPO 2715/2721 4000 RA BR OVC003
TEMPO 2800/2804 27015G30KT
BECMG 2811/2814 NSC



MET'MAP, your aeronautical weather chart ! - Copyright ORBIFLY December 2007 - Disclaimer

ORBIFLY MET'MAP TEAM :

Programming & Development : Alexandra Zaïnal
Concept & original design : Baudouin d'Aumeries
Assistance for programming : Marc-Olivier Méhu
Technical & hardware support : Manuel Goepfert

Contact : metmap@orbifly.com




SOURCES & CREDITS :

   NOAA